Wetterdaten: September 2016
Datum Temp Feuchte Luftdruck Regen Wind Richtung Sonnenschein UV Solar Windben
01.09.2016 18,3 C 73 % 1020,9 hPa 0,0 l/m 0,2 km/h NW 7,83 h 2,5 UV-I 325 W/m 6,8 km/h
02.09.2016 19,4 C 64 % 1018,7 hPa 0,0 l/m 1,1 km/h S 9,92 h 2,8 UV-I 380 W/m 4,4 km/h
03.09.2016 17,9 C 76 % 1015,2 hPa 0,0 l/m 1,6 km/h W-SW 8,08 h 2,6 UV-I 344 W/m 4,4 km/h
04.09.2016 15,7 C 89 % 1010,1 hPa 14,8 l/m 0,6 km/h S 1,58 h 1,5 UV-I 128 W/m 9,3 km/h
05.09.2016 14,9 C 91 % 1019,1 hPa 1,8 l/m 0,6 km/h W 1,50 h 1,4 UV-I 128 W/m 6,8 km/h
06.09.2016 16,0 C 80 % 1025,4 hPa 0,2 l/m 0,0 km/h SO 9,58 h 2,8 UV-I 384 W/m 0,0 km/h
07.09.2016 17,3 C 75 % 1019,1 hPa 0,0 l/m 0,9 km/h SO 10,25 h 2,8 UV-I 388 W/m 4,8 km/h
08.09.2016 21,5 C 69 % 1011,6 hPa 0,0 l/m 2,0 km/h SO 8,25 h 2,6 UV-I 354 W/m 3,6 km/h
09.09.2016 17,7 C 80 % 1016,7 hPa 0,0 l/m 0,0 km/h W-NW 5,42 h 2,2 UV-I 273 W/m 0,0 km/h
10.09.2016 20,1 C 79 % 1014,8 hPa 0,0 l/m 3,0 km/h S 7,42 h 2,2 UV-I 321 W/m 5,2 km/h
11.09.2016 18,2 C 76 % 1017,5 hPa 0,0 l/m 0,3 km/h W-NW 7,25 h 2,1 UV-I 275 W/m 2,0 km/h
12.09.2016 21,0 C 70 % 1016,2 hPa 0,0 l/m 3,9 km/h SO 9,75 h 2,3 UV-I 350 W/m 6,8 km/h
13.09.2016 22,6 C 64 % 1013,6 hPa 0,0 l/m 2,0 km/h SO 9,75 h 2,3 UV-I 350 W/m 7,3 km/h
14.09.2016 22,2 C 61 % 1013,0 hPa 0,0 l/m 3,7 km/h SO 9,00 h 2,2 UV-I 333 W/m 6,0 km/h
15.09.2016 22,1 C 54 % 1010,5 hPa 0,0 l/m 5,1 km/h SO 9,50 h 2,2 UV-I 348 W/m 16,1 km/h
16.09.2016 18,0 C 73 % 1011,9 hPa 0,0 l/m 0,9 km/h W 2,33 h 1,8 UV-I 216 W/m 4,4 km/h
17.09.2016 15,3 C 93 % 1014,4 hPa 4,0 l/m 0,0 km/h N 0,00 h 0,7 UV-I 52 W/m 0,0 km/h
18.09.2016 13,5 C 88 % 1015,2 hPa 0,0 l/m 0,8 km/h N-NO 1,25 h 1,7 UV-I 168 W/m 7,3 km/h
19.09.2016 12,7 C 86 % 1018,5 hPa 0,0 l/m 0,0 km/h N 0,00 h 0,7 UV-I 66 W/m 0,0 km/h
20.09.2016 12,1 C 77 % 1019,0 hPa 0,0 l/m 0,3 km/h N-NO 4,00 h 2,0 UV-I 238 W/m 2,4 km/h
21.09.2016 11,6 C 77 % 1019,9 hPa 0,0 l/m 0,2 km/h SO 9,08 h 2,3 UV-I 343 W/m 2,4 km/h
22.09.2016 13,3 C 73 % 1021,0 hPa 0,0 l/m 0,7 km/h S-SO 6,75 h 1,9 UV-I 288 W/m 4,4 km/h
23.09.2016 13,3 C 81 % 1023,9 hPa 0,0 l/m 0,0 km/h N-NW 2,42 h 1,5 UV-I 200 W/m 0,0 km/h
24.09.2016 13,1 C 78 % 1023,2 hPa 0,0 l/m 0,1 km/h S 7,75 h 2,0 UV-I 299 W/m 1,6 km/h
25.09.2016 16,2 C 71 % 1017,8 hPa 0,0 l/m 3,4 km/h SO 8,75 h 2,1 UV-I 333 W/m 5,2 km/h
26.09.2016 14,7 C 82 % 1022,4 hPa 0,0 l/m 0,0 km/h NW 1,75 h 1,3 UV-I 154 W/m 0,0 km/h
27.09.2016 13,1 C 84 % 1025,4 hPa 0,0 l/m 0,0 km/h S-SO 5,42 h 1,7 UV-I 246 W/m 0,8 km/h
28.09.2016 16,7 C 72 % 1022,5 hPa 0,0 l/m 3,9 km/h S 1,58 h 1,3 UV-I 134 W/m 16,9 km/h
29.09.2016 19,1 C 64 % 1013,2 hPa 0,0 l/m 6,0 km/h S 6,08 h 2,0 UV-I 276 W/m 12,5 km/h
30.09.2016 12,9 C 81 % 1013,2 hPa 0,4 l/m 0,1 km/h S 2,50 h 1,4 UV-I 169 W/m 2,4 km/h
Min-Datum 22.09.16 14.09.16 04.09.16 5 Tage 01.09.16 - - - - 01.09.16
Min-Zeit 07:10 15:45 15:55 - 00:00 - - - - 00:00
Minimum 6,3 C 36 % 1007,5 hPa - 0,0 km/h - - - - 0,0 km/h
Max-Datum 13.09.16 06.09.16 06.09.16 04.09.16 29.09.16 - 07.09.16 03.09.16 16.09.16 30.09.16
Max-Zeit 15:15 08:40 11:25 15:00 15:05 - 18:25 13:35 13:35 00:05
Maximum 31,0 C 98 % 1026,5 hPa 14,8 l/m 25,2 km/h
S
- 10,17 h 5,5 UV-I 896 W/m 43,5 km/h
S
Durchschnitt 16,7 C 76 % 1017,5 hPa #21,2 l/m 1,4 km/h S #174:45 h 2,0 UV-I 262 W/m 4,8 km/h

Durchschnitt Minimum Temp.11,4 C
Durchschnitt Maximum Temp.23,4 C